createdAt,value
2023-03-03T00:04:11.785Z,74.07
2023-03-03T00:09:14.763Z,77.17
2023-03-03T00:14:23.212Z,77.93
2023-03-03T00:19:27.456Z,75.50
2023-03-03T00:24:38.401Z,64.43
2023-03-03T00:29:46.968Z,60.97
2023-03-03T00:34:51.828Z,69.20
2023-03-03T00:39:55.308Z,67.90
2023-03-03T00:44:59.336Z,77.83
2023-03-03T00:50:26.933Z,78.63
2023-03-03T00:55:30.675Z,71.80
2023-03-03T01:00:34.434Z,130.37
2023-03-03T01:05:40.058Z,194.50
2023-03-03T01:10:47.025Z,102.97
2023-03-03T01:15:50.050Z,190.97
2023-03-03T01:20:54.411Z,89.77
2023-03-03T01:25:57.441Z,70.87
2023-03-03T01:31:02.295Z,179.13
2023-03-03T01:36:07.947Z,245.40
2023-03-03T01:41:10.875Z,201.90
2023-03-03T01:46:42.120Z,264.13
2023-03-03T01:51:51.757Z,201.93
2023-03-03T01:56:59.698Z,249.47
2023-03-03T02:02:02.718Z,131.70
2023-03-03T02:07:11.102Z,68.53
2023-03-03T02:12:18.000Z,121.47
2023-03-03T02:17:21.282Z,90.73
2023-03-03T02:22:40.247Z,64.00
2023-03-03T02:27:44.697Z,55.97
2023-03-03T02:32:48.549Z,102.27
2023-03-03T02:37:51.586Z,104.13
2023-03-03T02:42:59.496Z,95.47
2023-03-03T02:48:02.522Z,68.67
2023-03-03T02:53:05.501Z,53.47
2023-03-03T02:58:10.730Z,52.03
2023-03-03T03:03:13.719Z,48.10
2023-03-03T03:08:16.823Z,46.90
2023-03-03T03:13:21.210Z,55.40
2023-03-03T03:18:25.205Z,53.83
2023-03-03T03:23:30.629Z,46.93
2023-03-03T03:28:36.006Z,44.87
2023-03-03T03:33:38.947Z,49.57
2023-03-03T03:38:43.200Z,58.30
2023-03-03T03:43:48.632Z,59.80
2023-03-03T03:48:52.168Z,61.50
2023-03-03T03:53:57.642Z,52.97
2023-03-03T03:59:01.955Z,50.70
2023-03-03T04:04:05.384Z,53.20
2023-03-03T04:09:08.927Z,61.70
2023-03-03T04:14:13.323Z,45.00
2023-03-03T04:19:16.465Z,50.60
2023-03-03T04:24:20.436Z,53.97
2023-03-03T04:29:27.827Z,53.93
2023-03-03T04:34:31.461Z,59.17
2023-03-03T04:39:34.499Z,51.67
2023-03-03T04:44:39.174Z,56.83
2023-03-03T04:49:42.847Z,51.30
2023-03-03T04:54:46.152Z,57.13
2023-03-03T04:59:51.530Z,55.37
2023-03-03T05:04:55.285Z,57.23
2023-03-03T05:09:58.210Z,52.70
2023-03-03T05:15:02.750Z,51.90
2023-03-03T05:20:08.443Z,59.00
2023-03-03T05:25:12.767Z,69.07
2023-03-03T05:30:17.284Z,47.97
2023-03-03T05:35:20.761Z,55.13
2023-03-03T05:40:23.885Z,49.57
2023-03-03T05:45:28.236Z,44.07
2023-03-03T05:50:31.371Z,53.13
2023-03-03T05:55:34.468Z,52.80
2023-03-03T06:00:39.027Z,58.53
2023-03-03T06:05:41.981Z,48.80
2023-03-03T06:10:45.138Z,51.37
2023-03-03T06:15:51.835Z,49.83
2023-03-03T06:20:55.212Z,44.50
2023-03-03T06:25:58.177Z,50.87
2023-03-03T06:31:02.631Z,53.00
2023-03-03T06:36:05.999Z,49.13
2023-03-03T06:41:08.997Z,51.20
2023-03-03T06:46:13.387Z,45.63
2023-03-03T06:51:24.568Z,45.00
2023-03-03T06:56:28.320Z,44.23
2023-03-03T07:01:37.944Z,49.17
2023-03-03T07:06:40.912Z,45.87
2023-03-03T07:11:46.250Z,44.20
2023-03-03T07:16:57.874Z,58.50
2023-03-03T07:22:03.294Z,49.63
2023-03-03T07:27:13.605Z,52.23
2023-03-03T07:32:39.167Z,46.80
2023-03-03T07:37:43.918Z,53.33
2023-03-03T07:42:46.889Z,55.70
2023-03-03T07:48:21.286Z,54.37
2023-03-03T07:53:29.056Z,54.77
2023-03-03T07:58:38.549Z,54.30
2023-03-03T08:03:44.896Z,58.37
2023-03-03T08:08:47.798Z,61.67
2023-03-03T08:13:50.673Z,51.50
2023-03-03T08:18:55.414Z,55.00
2023-03-03T08:23:58.349Z,52.20
2023-03-03T08:29:01.277Z,48.70
2023-03-03T08:34:05.624Z,52.43
2023-03-03T08:39:09.390Z,50.40
2023-03-03T08:44:12.660Z,50.10
2023-03-03T08:49:17.084Z,44.47
2023-03-03T08:54:20.103Z,54.70
2023-03-03T08:59:23.264Z,46.47
2023-03-03T09:04:27.626Z,48.73
2023-03-03T09:09:30.670Z,38.10
2023-03-03T09:14:33.545Z,39.70
2023-03-03T09:19:38.532Z,42.70
2023-03-03T09:24:43.815Z,44.37
2023-03-03T09:29:47.057Z,32.27
2023-03-03T09:34:52.343Z,33.40
2023-03-03T09:39:57.485Z,26.43
2023-03-03T09:45:37.245Z,25.57
2023-03-03T09:50:54.513Z,29.93
2023-03-03T09:56:04.513Z,28.43
2023-03-03T10:01:26.086Z,22.10
2023-03-03T10:06:37.120Z,23.00
2023-03-03T10:11:51.968Z,24.60
2023-03-03T10:17:17.109Z,19.90
2023-03-03T10:22:28.615Z,19.20
2023-03-03T10:27:56.528Z,23.07
2023-03-03T10:33:03.381Z,18.40
2023-03-03T10:38:45.741Z,18.03
2023-03-03T10:44:01.914Z,18.43
2023-03-03T10:49:34.758Z,16.63
2023-03-03T10:55:07.444Z,18.27
2023-03-03T11:00:22.649Z,16.30
2023-03-03T11:05:37.984Z,15.63
2023-03-03T11:10:53.853Z,17.53
2023-03-03T11:16:14.866Z,20.03
2023-03-03T11:21:25.941Z,15.13
2023-03-03T11:26:46.359Z,15.00
2023-03-03T11:31:55.731Z,14.27
2023-03-03T11:37:08.582Z,16.63
2023-03-03T11:42:23.873Z,13.33
2023-03-03T11:47:32.143Z,14.20
2023-03-03T11:52:45.581Z,16.43
2023-03-03T11:57:53.744Z,12.90
2023-03-03T12:03:15.558Z,18.40
2023-03-03T12:08:30.298Z,14.37
2023-03-03T12:13:48.139Z,18.40
2023-03-03T12:19:04.777Z,11.20
2023-03-03T12:24:29.145Z,13.30
2023-03-03T12:29:46.803Z,13.20
2023-03-03T12:34:55.363Z,13.63
2023-03-03T12:40:07.422Z,13.50
2023-03-03T12:45:25.351Z,11.40
2023-03-03T12:50:48.133Z,11.93
2023-03-03T12:55:54.794Z,12.10
2023-03-03T13:01:08.361Z,8.90
2023-03-03T13:06:20.851Z,9.63
2023-03-03T13:11:43.640Z,12.20
2023-03-03T13:17:00.336Z,12.60
2023-03-03T13:22:12.796Z,11.87
2023-03-03T13:27:20.754Z,12.10
2023-03-03T13:32:37.493Z,9.23
2023-03-03T13:37:45.893Z,9.23
2023-03-03T13:42:54.696Z,8.97
2023-03-03T13:48:09.726Z,9.63
2023-03-03T13:53:34.429Z,9.40
2023-03-03T13:58:50.694Z,9.70
2023-03-03T14:04:06.406Z,8.67
2023-03-03T14:09:26.983Z,10.23
2023-03-03T14:14:45.540Z,9.63
2023-03-03T14:20:03.473Z,12.03
2023-03-03T14:25:09.953Z,13.17
2023-03-03T14:30:34.053Z,21.83
2023-03-03T14:35:41.682Z,15.40
2023-03-03T14:40:46.344Z,11.47
2023-03-03T14:45:49.409Z,15.30
2023-03-03T14:50:58.297Z,11.83
2023-03-03T14:56:18.232Z,18.03
2023-03-03T15:01:32.764Z,10.40
2023-03-03T15:06:42.070Z,14.80
2023-03-03T15:11:48.340Z,12.00
2023-03-03T15:16:51.956Z,13.93
2023-03-03T15:22:02.543Z,13.60
2023-03-03T15:27:12.009Z,11.33
2023-03-03T15:32:22.527Z,18.83
2023-03-03T15:37:42.485Z,17.70
2023-03-03T15:42:50.375Z,15.30
2023-03-03T15:48:08.333Z,17.80
2023-03-03T15:53:35.737Z,19.77
2023-03-03T15:59:00.206Z,15.67
2023-03-03T16:04:07.929Z,22.30
2023-03-03T16:09:25.840Z,29.67
2023-03-03T16:14:45.990Z,27.83
2023-03-03T16:19:57.008Z,35.50
2023-03-03T16:25:30.561Z,37.50
2023-03-03T16:30:38.937Z,32.17
2023-03-03T16:35:50.406Z,40.87
2023-03-03T16:40:57.796Z,37.80
2023-03-03T16:46:06.072Z,41.13
2023-03-03T16:51:18.994Z,42.67
2023-03-03T16:56:29.728Z,53.03
2023-03-03T17:01:43.178Z,53.80
2023-03-03T17:06:51.225Z,47.00
2023-03-03T17:12:04.000Z,48.43
2023-03-03T17:17:15.914Z,52.53
2023-03-03T17:22:27.662Z,53.17
2023-03-03T17:27:44.449Z,34.80
2023-03-03T17:33:15.090Z,42.40
2023-03-03T17:38:28.905Z,44.00
2023-03-03T17:43:40.351Z,49.40
2023-03-03T17:49:11.292Z,43.33
2023-03-03T17:54:26.153Z,46.27
2023-03-03T17:59:43.719Z,43.23
2023-03-03T18:05:06.655Z,48.77
2023-03-03T18:10:41.387Z,51.03
2023-03-03T18:16:12.120Z,49.00
2023-03-03T18:21:17.740Z,50.77
2023-03-03T18:26:36.047Z,54.10
2023-03-03T18:31:51.280Z,53.07
2023-03-03T18:36:55.537Z,43.83
2023-03-03T18:42:12.230Z,43.20
2023-03-03T18:47:17.534Z,43.20
2023-03-03T18:52:27.693Z,39.60
2023-03-03T18:57:30.786Z,40.93
2023-03-03T19:02:46.316Z,45.50
2023-03-03T19:07:58.045Z,39.60
2023-03-03T19:13:01.126Z,42.43
2023-03-03T19:18:14.671Z,41.27
2023-03-03T19:23:20.471Z,39.90
2023-03-03T19:28:38.415Z,43.03
2023-03-03T19:33:54.587Z,42.87
2023-03-03T19:39:22.678Z,36.27
2023-03-03T19:44:40.957Z,40.83
2023-03-03T19:50:07.768Z,41.07
2023-03-03T19:55:25.715Z,40.57
2023-03-03T20:00:36.155Z,41.67
2023-03-03T20:05:47.015Z,42.90
2023-03-03T20:10:58.300Z,40.10
2023-03-03T20:16:11.134Z,35.03
2023-03-03T20:21:27.653Z,41.67
2023-03-03T20:26:35.233Z,39.20
2023-03-03T20:31:47.057Z,37.87
2023-03-03T20:37:01.289Z,45.70
2023-03-03T20:42:16.102Z,43.13
2023-03-03T20:47:31.908Z,43.50
2023-03-03T20:52:43.274Z,47.60
2023-03-03T20:57:54.830Z,50.73
2023-03-03T21:03:10.304Z,41.80
2023-03-03T21:08:14.578Z,48.17
2023-03-03T21:13:29.474Z,52.43
2023-03-03T21:18:32.420Z,52.20
2023-03-03T21:23:36.729Z,54.50
2023-03-03T21:28:39.696Z,54.77
2023-03-03T21:33:48.791Z,64.27
2023-03-03T21:38:54.689Z,48.60
2023-03-03T21:43:57.607Z,54.40
2023-03-03T21:49:00.535Z,54.30
2023-03-03T21:54:05.015Z,58.77
2023-03-03T21:59:08.040Z,57.37
2023-03-03T22:04:11.020Z,60.50
2023-03-03T22:09:15.601Z,59.67
2023-03-03T22:14:18.543Z,63.03
2023-03-03T22:19:21.530Z,55.30
2023-03-03T22:24:25.771Z,56.07
2023-03-03T22:29:29.230Z,72.70
2023-03-03T22:34:32.110Z,65.43
2023-03-03T22:39:36.362Z,57.27
2023-03-03T22:44:39.901Z,68.67
2023-03-03T22:49:42.777Z,56.83
2023-03-03T22:54:47.045Z,67.57
2023-03-03T22:59:49.949Z,60.87
2023-03-03T23:04:58.192Z,56.47
2023-03-03T23:10:03.367Z,67.07
2023-03-03T23:15:13.243Z,60.97
2023-03-03T23:20:18.682Z,58.60
2023-03-03T23:25:24.020Z,52.80
2023-03-03T23:30:27.442Z,46.17
2023-03-03T23:35:30.524Z,63.63
2023-03-03T23:40:34.879Z,54.87
2023-03-03T23:45:37.723Z,50.17
2023-03-03T23:50:40.663Z,44.43
2023-03-03T23:55:45.638Z,44.70
